createdAt,value
2023-05-08T13:07:05.769Z,77.70
2023-05-08T13:09:33.355Z,76.80
2023-05-08T13:12:00.950Z,77.80
2023-05-08T13:14:29.140Z,77.10
2023-05-08T13:16:56.668Z,77.10
2023-05-08T13:19:24.029Z,78.00
2023-05-08T13:21:52.857Z,76.60
2023-05-08T13:24:20.457Z,76.10
2023-05-08T13:26:47.843Z,77.00
2023-05-08T13:29:15.385Z,78.10
2023-05-08T13:31:42.806Z,77.10
2023-05-08T13:34:10.327Z,76.80
2023-05-08T13:36:37.802Z,76.80
2023-05-08T13:39:05.488Z,76.70
2023-05-08T13:41:32.844Z,75.90
2023-05-08T13:44:00.480Z,75.50
2023-05-08T13:46:27.990Z,75.90
2023-05-08T13:48:55.531Z,76.00
2023-05-08T13:51:23.131Z,74.20
2023-05-08T13:53:50.623Z,74.70
2023-05-08T13:56:18.089Z,75.20
2023-05-08T13:59:12.221Z,74.30
2023-05-08T14:01:39.598Z,75.70
2023-05-08T14:04:07.230Z,75.90
2023-05-08T14:06:34.716Z,74.90
2023-05-08T14:09:02.121Z,73.70
2023-05-08T14:11:29.635Z,74.20
2023-05-08T14:13:57.532Z,73.50
2023-05-08T14:16:25.064Z,72.90
2023-05-08T14:18:53.562Z,73.20
2023-05-08T14:21:20.959Z,73.10
2023-05-08T14:23:48.337Z,72.70
2023-05-08T14:26:15.920Z,72.10
2023-05-08T14:28:43.539Z,71.60
2023-05-08T14:31:12.229Z,72.40
2023-05-08T14:33:39.592Z,73.00
2023-05-08T14:36:07.332Z,72.30
2023-05-08T14:38:34.724Z,72.30
2023-05-08T14:41:04.551Z,72.30
2023-05-08T14:43:32.290Z,72.00
2023-05-08T14:46:00.602Z,71.60
2023-05-08T14:48:28.251Z,71.90
2023-05-08T14:50:57.418Z,71.50
2023-05-08T14:53:26.031Z,72.20
2023-05-08T14:55:53.636Z,71.90
2023-05-08T14:58:21.374Z,71.20
2023-05-08T15:00:48.847Z,71.60
2023-05-08T15:03:16.815Z,73.50
2023-05-08T15:05:44.535Z,73.80
2023-05-08T15:08:12.231Z,74.90
2023-05-08T15:10:39.752Z,74.20
2023-05-08T15:13:07.437Z,74.50
2023-05-08T15:15:35.021Z,75.20
2023-05-08T15:18:02.699Z,74.60
2023-05-08T15:20:30.232Z,74.50
2023-05-08T15:29:32.933Z,70.20
2023-05-08T15:50:59.081Z,76.90
2023-05-08T15:53:26.688Z,76.30
2023-05-08T15:55:55.529Z,75.60
2023-05-08T15:58:23.348Z,76.10
2023-05-08T16:00:52.261Z,75.50
2023-05-08T16:03:19.830Z,74.50
2023-05-08T16:05:47.268Z,74.40
2023-05-08T16:08:15.535Z,74.00
2023-05-08T16:10:42.959Z,74.30
2023-05-08T16:13:12.535Z,73.80
2023-05-08T16:15:40.303Z,73.60
2023-05-08T16:18:08.145Z,73.20
2023-05-08T16:20:36.492Z,72.80
2023-05-08T16:23:05.215Z,73.30
2023-05-08T16:25:33.926Z,74.70
2023-05-08T16:28:02.220Z,75.00
2023-05-08T16:30:30.836Z,75.60
2023-05-08T16:32:58.488Z,75.40
2023-05-08T16:35:26.392Z,74.50
2023-05-08T16:37:54.407Z,74.60
2023-05-08T16:40:22.176Z,75.00
2023-05-08T16:42:49.755Z,74.50
2023-05-08T16:45:17.332Z,74.50
2023-05-08T16:47:44.836Z,74.60
2023-05-08T16:50:12.958Z,75.10
2023-05-08T16:52:40.614Z,74.40
2023-05-08T16:55:08.804Z,75.00
2023-05-08T16:57:36.233Z,75.50
2023-05-08T17:00:05.689Z,76.10
2023-05-08T17:02:33.229Z,76.00
2023-05-08T17:05:01.978Z,76.60
2023-05-08T17:07:29.379Z,77.80
2023-05-08T17:09:57.649Z,77.30
2023-05-08T17:12:25.611Z,76.40
2023-05-08T17:14:53.447Z,76.90
2023-05-08T17:17:20.976Z,77.20
2023-05-08T17:19:48.340Z,77.00
2023-05-08T17:22:16.221Z,77.30
2023-05-08T17:24:44.143Z,77.20
2023-05-08T17:27:11.827Z,77.00
2023-05-08T17:54:51.997Z,80.10
2023-05-08T17:57:19.549Z,80.30
2023-05-08T17:59:46.959Z,81.00
2023-05-08T18:02:14.467Z,80.50
2023-05-08T18:04:41.994Z,80.20
2023-05-08T18:07:09.447Z,80.50
2023-05-08T18:09:37.028Z,80.10
2023-05-08T18:12:04.520Z,79.70
2023-05-08T18:14:32.465Z,79.40
2023-05-08T18:17:00.682Z,79.90
2023-05-08T18:19:28.036Z,79.10
2023-05-08T18:21:55.356Z,78.80
2023-05-08T18:24:23.163Z,79.30
2023-05-08T18:26:52.326Z,79.80
2023-05-08T18:29:20.153Z,79.20
2023-05-08T18:31:48.342Z,79.60
2023-05-08T18:34:16.628Z,79.80
2023-05-08T18:36:43.986Z,79.10
2023-05-08T18:39:11.710Z,79.40
2023-05-08T18:41:39.165Z,79.80
2023-05-08T18:44:06.616Z,79.00
2023-05-08T18:46:34.406Z,79.40
2023-05-08T18:49:02.206Z,79.90
2023-05-08T18:51:29.471Z,79.80
2023-05-08T18:53:57.226Z,80.00
2023-05-08T18:56:24.552Z,80.00
2023-05-08T18:58:51.911Z,80.20
2023-05-08T19:01:20.992Z,80.30
2023-05-08T19:03:48.870Z,80.40
2023-05-08T19:06:17.032Z,81.10
2023-05-08T19:08:44.506Z,81.20
2023-05-08T19:11:11.888Z,81.60
2023-05-08T19:13:39.493Z,81.40
2023-05-08T19:16:06.954Z,81.90
2023-05-08T19:18:34.973Z,81.30
2023-05-08T19:21:03.119Z,80.80
2023-05-08T19:23:30.555Z,80.50
2023-05-08T19:26:01.775Z,81.20
2023-05-08T19:28:29.378Z,81.20
2023-05-08T19:30:58.358Z,81.80
2023-05-08T19:33:25.918Z,81.60
2023-05-08T19:35:53.309Z,81.70
2023-05-08T19:38:20.769Z,82.00
2023-05-08T19:40:55.795Z,82.00
2023-05-08T19:43:26.010Z,83.10
2023-05-08T19:45:53.485Z,82.70
2023-05-08T19:48:21.392Z,82.20
2023-05-08T19:50:48.812Z,82.30
2023-05-08T19:53:16.333Z,83.20
2023-05-08T19:55:44.046Z,82.80
2023-05-08T19:58:11.594Z,82.80
2023-05-08T20:00:38.961Z,82.60
2023-05-08T20:03:06.319Z,82.40
2023-05-08T20:05:34.283Z,83.40
2023-05-08T20:08:01.780Z,82.00
2023-05-08T20:10:29.221Z,82.60
2023-05-08T20:12:56.568Z,82.20
2023-05-08T20:15:24.734Z,82.80
2023-05-08T20:17:52.357Z,82.30
2023-05-08T20:20:19.776Z,82.70
2023-05-08T20:22:47.215Z,82.60
2023-05-08T20:25:15.138Z,83.00
2023-05-08T20:27:42.488Z,83.70
2023-05-08T20:30:10.087Z,84.00
2023-05-08T20:32:37.571Z,84.10
2023-05-08T20:35:05.448Z,84.60
2023-05-08T20:37:32.822Z,84.60
2023-05-08T20:40:01.975Z,85.10
2023-05-08T20:42:31.175Z,85.50
2023-05-08T20:45:12.812Z,85.70
2023-05-08T20:47:44.869Z,85.70
2023-05-08T20:50:12.934Z,85.80
2023-05-08T20:52:42.437Z,85.80
2023-05-08T20:55:11.070Z,86.20
2023-05-08T20:57:39.202Z,86.30
2023-05-08T21:03:12.369Z,86.00
2023-05-08T21:05:39.821Z,86.30
2023-05-08T21:08:08.670Z,86.10
2023-05-08T21:24:21.539Z,87.20
2023-05-08T21:26:49.257Z,87.70
2023-05-08T21:32:20.396Z,87.90
